Time;durP1;ratioP1;P1;durP2;ratioP2;P2;SDS_P1;SDS_P2;PMS_P1;PMS_P2;Temp;Humidity;BMP_temperature;BMP_pressure;BME280_temperature;BME280_humidity;BME280_pressure;Samples;Min_cycle;Max_cycle;Signal;HPM_P1;HPM_P2
2022/06/16 00:01:56;;;;;;;6.20;5.00;;;;;;;20.59;52.08;98843.50;2617267;47;20026;-69
2022/06/16 00:04:26;;;;;;;5.93;5.00;;;;;;;20.57;52.23;98837.56;2617904;54;20132;-70
2022/06/16 00:06:56;;;;;;;9.02;5.90;;;;;;;20.61;52.18;98838.66;2618107;54;20044;-68
2022/06/16 00:09:26;;;;;;;8.05;6.13;;;;;;;20.60;52.22;98834.38;2618130;54;20030;-69
2022/06/16 00:11:55;;;;;;;7.00;5.60;;;;;;;20.56;52.07;98830.56;2617970;54;20082;-69
2022/06/16 00:14:27;;;;;;;6.45;5.28;;;;;;;20.42;52.30;98830.16;2617171;47;20034;-69
2022/06/16 00:17:00;;;;;;;6.63;5.35;;;;;;;20.31;52.41;98824.97;2618582;31;20508;-68
2022/06/16 00:19:29;;;;;;;6.30;5.70;;;;;;;20.20;52.72;98824.06;2617262;47;20061;-68
2022/06/16 00:21:59;;;;;;;7.25;5.18;;;;;;;20.10;53.29;98810.56;2617167;47;20026;-68
2022/06/16 00:24:29;;;;;;;8.35;6.47;;;;;;;20.02;53.40;98817.19;2617304;47;20038;-69
2022/06/16 00:26:59;;;;;;;7.53;6.75;;;;;;;19.95;53.40;98816.56;2617180;54;20041;-68
2022/06/16 00:29:30;;;;;;;6.70;6.00;;;;;;;19.84;53.67;98821.03;2617829;54;20061;-68
2022/06/16 00:32:03;;;;;;;6.53;5.78;;;;;;;19.73;53.88;98803.22;2617972;39;20431;-70
2022/06/16 00:34:34;;;;;;;5.80;5.10;;;;;;;19.69;54.05;98802.09;2616435;47;20067;-67
2022/06/16 00:37:03;;;;;;;5.70;5.20;;;;;;;19.62;54.38;98798.78;2617949;47;20041;-69
2022/06/16 00:39:33;;;;;;;6.63;5.78;;;;;;;19.63;53.97;98811.13;2618129;51;20033;-69
2022/06/16 00:42:19;;;;;;;5.75;5.07;;;;;;;19.55;54.33;98804.31;2618472;54;20022;-69
2022/06/16 00:44:52;;;;;;;5.88;5.28;;;;;;;19.40;54.91;98810.31;2618802;54;20542;-68
2022/06/16 00:47:27;;;;;;;9.40;5.05;;;;;;;19.38;54.96;98809.75;2617951;54;20022;-69
2022/06/16 00:50:01;;;;;;;5.38;4.88;;;;;;;19.43;54.40;98804.47;2617954;54;20151;-69
2022/06/16 00:52:32;;;;;;;;;;;;;;;19.46;54.35;98811.19;2618071;54;20033;-69
2022/06/16 00:55:12;;;;;;;5.97;5.38;;;;;;;19.34;54.80;98810.50;2618147;54;20514;-69
2022/06/16 00:57:49;;;;;;;6.57;5.30;;;;;;;19.29;54.68;98811.25;2619488;31;20532;-68
2022/06/16 01:00:23;;;;;;;7.03;5.20;;;;;;;19.32;54.94;98809.94;2618701;54;20561;-68
2022/06/16 01:02:55;;;;;;;6.88;5.85;;;;;;;19.45;54.70;98813.06;2618354;54;20086;-69
2022/06/16 01:05:23;;;;;;;7.72;5.20;;;;;;;19.58;54.56;98813.72;2617875;54;20116;-70
2022/06/16 01:07:54;;;;;;;6.68;5.50;;;;;;;19.67;54.18;98802.34;2617834;47;20593;-70
2022/06/16 01:10:31;;;;;;;5.93;5.18;;;;;;;19.68;54.72;98806.66;2618761;54;20049;-69
2022/06/16 01:16:09;;;;;;;8.38;5.78;;;;;;;19.54;55.06;98816.09;2618626;54;20034;-70
2022/06/16 01:18:49;;;;;;;6.57;5.97;;;;;;;19.36;55.34;98814.56;2617860;54;20069;-69
2022/06/16 01:21:31;;;;;;;8.75;5.47;;;;;;;19.34;55.99;98810.50;2618291;54;20045;-70
2022/06/16 01:24:31;;;;;;;6.38;5.75;;;;;;;19.39;55.32;98802.50;2618260;47;20027;-69
2022/06/16 01:27:18;;;;;;;6.13;5.63;;;;;;;19.43;55.69;98806.31;2618794;54;20039;-70
2022/06/16 01:30:01;;;;;;;7.07;6.03;;;;;;;19.32;55.63;98805.41;2618708;54;20053;-69
2022/06/16 01:32:42;;;;;;;6.90;6.20;;;;;;;19.21;55.93;98812.47;2620822;54;20046;-71
2022/06/16 01:35:19;;;;;;;6.82;6.05;;;;;;;19.21;55.69;98800.97;2622207;54;20046;-69
2022/06/16 01:37:58;;;;;;;6.75;5.43;;;;;;;19.05;56.24;98805.31;2624227;54;20035;-70
2022/06/16 01:40:34;;;;;;;6.18;5.50;;;;;;;19.02;56.81;98797.75;2624906;51;20049;-69
2022/06/16 01:43:12;;;;;;;6.72;6.10;;;;;;;19.05;56.10;98813.34;2624254;47;20022;-70
2022/06/16 01:45:53;;;;;;;8.52;5.85;;;;;;;18.91;56.78;98806.72;2623811;54;20023;-69
2022/06/16 01:48:25;;;;;;;8.38;6.15;;;;;;;18.76;57.26;98796.59;2622830;54;20026;-69
2022/06/16 01:50:59;;;;;;;6.25;5.38;;;;;;;18.74;57.60;98801.41;2620739;54;20078;-69
2022/06/16 01:53:31;;;;;;;;;;;;;;;18.77;57.24;98799.03;2620256;47;20031;-69
2022/06/16 01:56:10;;;;;;;6.30;5.80;;;;;;;18.88;57.05;98810.69;2622767;47;19939;-68
2022/06/16 01:58:43;;;;;;;5.82;5.32;;;;;;;18.80;56.82;98809.25;2619750;54;20038;-67
2022/06/16 02:01:17;;;;;;;;;;;;;;;18.73;56.84;98805.91;2620015;47;20030;-68
2022/06/16 02:03:54;;;;;;;6.55;5.95;;;;;;;18.64;57.23;98809.25;2619086;54;19946;-69
2022/06/16 02:06:27;;;;;;;6.60;6.00;;;;;;;18.68;57.70;98816.53;2619698;54;20026;-70
2022/06/16 02:09:03;;;;;;;6.30;5.72;;;;;;;18.65;57.25;98810.84;2619815;47;20562;-70
2022/06/16 02:11:34;;;;;;;7.32;5.72;;;;;;;18.54;57.75;98813.38;2619349;47;20035;-69
2022/06/16 02:14:19;;;;;;;6.72;5.93;;;;;;;18.52;57.87;98823.50;2618747;47;20085;-68
2022/06/16 02:16:57;;;;;;;8.32;6.60;;;;;;;18.39;57.92;98823.84;2617702;54;20026;-65
2022/06/16 02:19:30;;;;;;;6.88;6.18;;;;;;;18.38;58.28;98816.88;2617895;47;20018;-63
2022/06/16 02:22:00;;;;;;;6.65;5.97;;;;;;;18.41;58.64;98826.25;2618184;54;20033;-63
2022/06/16 02:24:30;;;;;;;7.07;6.13;;;;;;;18.48;57.93;98833.09;2618909;54;20049;-63
2022/06/16 02:27:02;;;;;;;7.43;6.65;;;;;;;18.55;57.71;98827.56;2618025;54;20557;-64
2022/06/16 02:29:34;;;;;;;7.50;6.13;;;;;;;18.57;58.07;98833.47;2619264;39;20429;-64
2022/06/16 02:32:37;;;;;;;7.05;6.35;;;;;;;18.56;57.78;98829.19;2618251;50;20076;-63
2022/06/16 02:35:22;;;;;;;6.82;6.15;;;;;;;18.56;57.70;98840.72;2618240;47;20034;-64
2022/06/16 02:38:03;;;;;;;6.57;5.97;;;;;;;18.49;57.90;98840.09;2618881;54;20034;-63
2022/06/16 02:40:55;;;;;;;8.32;6.72;;;;;;;18.48;57.90;98846.47;2618728;39;20419;-64
2022/06/16 02:43:38;;;;;;;6.72;5.97;;;;;;;18.49;57.82;98848.09;2618634;54;20038;-64
2022/06/16 02:46:13;;;;;;;8.45;6.13;;;;;;;18.52;58.15;98842.25;2618990;54;20025;-63
2022/06/16 02:48:52;;;;;;;7.57;6.38;;;;;;;18.51;57.94;98842.50;2618400;54;20023;-64
2022/06/16 02:51:29;;;;;;;6.60;5.78;;;;;;;18.49;57.85;98839.25;2618224;54;20045;-63
2022/06/16 02:54:10;;;;;;;7.05;6.32;;;;;;;18.42;58.19;98838.63;2618050;47;20034;-63
2022/06/16 02:56:46;;;;;;;12.25;6.43;;;;;;;18.38;58.55;98837.47;2621708;54;20037;-64
2022/06/16 02:59:22;;;;;;;6.50;5.55;;;;;;;18.42;58.49;98838.63;2622571;54;20043;-64
2022/06/16 03:01:52;;;;;;;;;;;;;;;18.21;58.75;98848.16;2623908;54;20070;-64
2022/06/16 03:04:25;;;;;;;9.98;6.78;;;;;;;18.15;58.59;98844.56;2619571;54;19938;-65
2022/06/16 03:06:55;;;;;;;8.60;7.50;;;;;;;18.16;59.09;98843.50;2618272;54;20081;-64
2022/06/16 03:09:25;;;;;;;8.35;6.47;;;;;;;18.04;59.05;98840.91;2618165;54;20154;-64
2022/06/16 03:11:55;;;;;;;8.88;7.68;;;;;;;18.02;59.13;98843.00;2618676;54;20026;-64
2022/06/16 03:14:26;;;;;;;7.18;6.43;;;;;;;18.05;59.71;98849.75;2617997;54;20073;-64
2022/06/16 03:16:56;;;;;;;7.57;6.43;;;;;;;18.12;59.27;98845.03;2617912;47;20046;-64
2022/06/16 03:19:28;;;;;;;7.00;6.22;;;;;;;18.16;58.90;98851.53;2618098;54;20033;-64
2022/06/16 03:21:58;;;;;;;6.32;5.72;;;;;;;18.02;59.51;98858.25;2618500;54;20552;-64
2022/06/16 03:24:31;;;;;;;8.25;6.55;;;;;;;18.07;59.57;98861.81;2617961;51;20037;-64
2022/06/16 03:27:00;;;;;;;8.35;7.55;;;;;;;18.09;59.24;98866.94;2620095;54;20573;-65
2022/06/16 03:29:37;;;;;;;7.13;6.43;;;;;;;18.04;59.89;98861.47;2619039;47;20042;-64
2022/06/16 03:32:08;;;;;;;7.40;6.70;;;;;;;18.11;59.34;98862.16;2617519;47;20125;-65
2022/06/16 03:34:41;;;;;;;7.82;6.80;;;;;;;18.17;59.46;98866.56;2618075;54;20045;-65
2022/06/16 03:37:15;;;;;;;7.50;6.80;;;;;;;17.98;59.23;98865.13;2617639;54;20061;-66
2022/06/16 03:39:49;;;;;;;7.88;6.68;;;;;;;17.91;59.95;98875.94;2618010;46;20046;-66
2022/06/16 03:42:20;;;;;;;8.25;6.97;;;;;;;17.89;59.68;98871.91;2617580;47;20058;-66
2022/06/16 03:44:52;;;;;;;10.30;6.80;;;;;;;17.81;59.71;98881.13;2618307;54;20027;-64
2022/06/16 03:47:23;;;;;;;7.88;6.50;;;;;;;17.85;60.09;98870.75;2618378;54;20130;-64
2022/06/16 03:49:55;;;;;;;7.93;7.13;;;;;;;17.87;60.19;98884.69;2618356;54;20031;-65
2022/06/16 03:52:25;;;;;;;7.50;6.75;;;;;;;17.86;60.13;98870.50;2617768;47;20035;-64
2022/06/16 03:54:57;;;;;;;7.03;6.32;;;;;;;17.83;60.40;98870.97;2617999;47;20065;-65
2022/06/16 03:57:29;;;;;;;8.13;6.70;;;;;;;17.83;60.08;98882.47;2617653;54;20030;-65
2022/06/16 03:59:59;;;;;;;10.05;6.90;;;;;;;17.80;59.93;98884.84;2617796;54;20041;-66
2022/06/16 04:02:47;;;;;;;7.28;6.57;;;;;;;17.83;59.89;98885.16;2618269;54;20058;-66
2022/06/16 04:05:27;;;;;;;9.93;6.80;;;;;;;17.84;59.99;98888.66;2618084;39;20426;-64
2022/06/16 04:08:07;;;;;;;7.18;6.45;;;;;;;17.71;60.11;98884.34;2617687;54;20533;-64
2022/06/16 04:10:39;;;;;;;10.07;6.95;;;;;;;17.84;60.36;98883.31;2618126;47;20796;-64
2022/06/16 04:13:09;;;;;;;7.82;7.05;;;;;;;17.84;59.60;98886.00;2618354;54;20038;-66
2022/06/16 04:15:40;;;;;;;7.70;7.00;;;;;;;17.80;59.92;98882.97;2618622;47;20037;-65
2022/06/16 04:18:11;;;;;;;8.27;7.35;;;;;;;17.80;59.59;98887.53;2618421;47;20110;-64
2022/06/16 04:20:47;;;;;;;8.50;7.60;;;;;;;17.82;59.42;98878.19;2618662;46;20026;-65
2022/06/16 04:23:47;;;;;;;7.63;6.93;;;;;;;17.94;59.69;98882.69;2618679;46;20033;-65
2022/06/16 04:26:18;;;;;;;6.57;5.80;;;;;;;18.07;59.05;98888.56;2619740;39;20465;-64
2022/06/16 04:28:51;;;;;;;6.88;6.32;;;;;;;18.12;58.85;98884.34;2618807;47;20030;-66
2022/06/16 04:31:23;;;;;;;7.20;6.50;;;;;;;18.11;58.34;98894.25;2619080;47;20026;-63
2022/06/16 04:33:53;;;;;;;7.03;6.30;;;;;;;18.00;59.02;98892.44;2618560;54;20529;-64
2022/06/16 04:36:27;;;;;;;7.82;6.57;;;;;;;18.03;59.15;98890.09;2619292;54;20057;-64
2022/06/16 04:39:07;;;;;;;10.15;6.88;;;;;;;18.12;58.64;98895.06;2618583;51;20566;-64
2022/06/16 04:41:38;;;;;;;7.82;6.50;;;;;;;18.10;58.50;98889.97;2618606;54;20035;-65
2022/06/16 04:44:10;;;;;;;6.80;6.20;;;;;;;18.17;58.92;98893.31;2618239;54;20030;-64
2022/06/16 04:46:41;;;;;;;7.03;6.53;;;;;;;18.26;58.52;98899.09;2618524;54;20034;-65
2022/06/16 04:49:12;;;;;;;8.23;7.00;;;;;;;18.35;58.25;98900.31;2618464;51;20073;-65
2022/06/16 04:51:52;;;;;;;7.63;6.93;;;;;;;18.54;58.44;98895.56;2618615;47;20117;-65
2022/06/16 04:54:25;;;;;;;9.45;8.13;;;;;;;18.58;58.04;98911.97;2618356;54;20042;-64
2022/06/16 04:57:17;;;;;;;8.90;8.10;;;;;;;18.73;57.91;98907.69;2618738;54;20045;-65
2022/06/16 05:00:07;;;;;;;7.43;6.72;;;;;;;18.86;57.61;98919.13;2619514;54;20099;-64
2022/06/16 05:03:01;;;;;;;8.35;7.28;;;;;;;19.03;57.46;98915.41;2618854;39;20460;-64
2022/06/16 05:06:02;;;;;;;7.32;6.63;;;;;;;19.22;57.07;98910.56;2619326;54;20029;-63
2022/06/16 05:08:44;;;;;;;7.55;6.82;;;;;;;19.43;56.34;98918.91;2618644;51;20057;-64
2022/06/16 05:11:42;;;;;;;7.15;6.28;;;;;;;19.54;56.41;98923.34;2618502;54;20023;-65
2022/06/16 05:14:38;;;;;;;8.55;6.40;;;;;;;19.64;55.54;98936.94;2618760;47;20035;-63
2022/06/16 05:17:26;;;;;;;9.05;6.50;;;;;;;19.72;55.42;98941.06;2618841;47;20034;-64
2022/06/16 05:20:12;;;;;;;7.72;5.97;;;;;;;19.71;55.04;98944.78;2619347;54;20042;-65
2022/06/16 05:22:59;;;;;;;12.02;6.18;;;;;;;19.73;54.91;98946.16;2618454;51;20142;-67
2022/06/16 05:25:46;;;;;;;6.25;5.63;;;;;;;19.81;54.00;98949.47;2618366;51;20034;-65
2022/06/16 05:28:31;;;;;;;8.70;6.65;;;;;;;19.83;54.60;98955.41;2618551;47;20033;-65
2022/06/16 05:31:39;;;;;;;6.85;6.15;;;;;;;19.85;54.50;98962.16;2618756;54;20042;-65
2022/06/16 05:34:25;;;;;;;7.68;5.65;;;;;;;20.00;54.61;98972.25;2618737;54;20059;-65
2022/06/16 05:37:13;;;;;;;8.75;6.05;;;;;;;20.16;54.37;98971.34;2619337;54;20061;-65
2022/06/16 05:40:03;;;;;;;7.25;5.60;;;;;;;20.26;53.23;98971.50;2619289;54;20038;-65
2022/06/16 05:42:54;;;;;;;9.30;6.93;;;;;;;20.46;53.67;98991.56;2619108;54;20057;-65
2022/06/16 05:45:43;;;;;;;7.70;5.70;;;;;;;20.47;53.38;98987.81;2618757;54;20026;-65
2022/06/16 05:48:36;;;;;;;8.45;5.80;;;;;;;20.50;53.27;98984.66;2618282;54;20030;-65
2022/06/16 05:51:12;;;;;;;8.15;6.10;;;;;;;20.60;52.82;98986.63;2618298;47;20027;-66
2022/06/16 05:53:52;;;;;;;7.07;5.07;;;;;;;20.65;51.84;98992.06;2618234;54;20065;-66
2022/06/16 05:56:29;;;;;;;5.43;4.57;;;;;;;20.59;52.08;98993.88;2618370;47;20113;-65
2022/06/16 05:59:02;;;;;;;7.68;4.97;;;;;;;20.60;52.29;98994.69;2618049;54;20027;-66
2022/06/16 06:01:39;;;;;;;5.25;4.47;;;;;;;20.64;52.18;98993.13;2617910;54;20533;-66
2022/06/16 06:04:11;;;;;;;5.65;4.15;;;;;;;20.67;51.92;98985.38;2617698;54;20057;-66
2022/06/16 06:06:42;;;;;;;4.65;4.18;;;;;;;20.70;51.88;99000.19;2618185;50;20055;-65
2022/06/16 06:17:29;;;;;;;4.20;3.75;;;;;;;20.92;51.07;99006.28;2617943;54;20034;-64
2022/06/16 06:20:04;;;;;;;5.57;4.25;;;;;;;20.94;51.44;99008.72;2618146;47;20018;-66
2022/06/16 06:22:33;;;;;;;4.35;3.92;;;;;;;20.92;50.79;99013.53;2618037;54;20035;-66
2022/06/16 06:25:16;;;;;;;7.30;3.78;;;;;;;20.91;51.04;99014.63;2618101;47;20034;-65
2022/06/16 06:27:47;;;;;;;5.07;3.67;;;;;;;20.97;50.61;99011.69;2618107;54;20035;-65
2022/06/16 06:30:26;;;;;;;6.63;4.65;;;;;;;21.12;50.70;99026.34;2618387;47;20131;-65
2022/06/16 06:32:56;;;;;;;5.30;3.90;;;;;;;21.24;49.99;99024.31;2618267;47;20122;-65
2022/06/16 06:35:26;;;;;;;3.88;3.47;;;;;;;21.27;50.23;99032.69;2620208;54;20030;-65
2022/06/16 06:37:55;;;;;;;6.70;3.85;;;;;;;21.36;49.59;99037.63;2621758;39;20454;-64
2022/06/16 06:40:28;;;;;;;9.02;3.90;;;;;;;21.33;49.98;99035.44;2620670;51;20077;-66
2022/06/16 06:42:58;;;;;;;7.25;3.67;;;;;;;21.37;49.77;99044.59;2620794;54;20035;-64
2022/06/16 06:45:31;;;;;;;4.50;3.63;;;;;;;21.41;49.31;99048.41;2621644;47;20023;-65
2022/06/16 06:48:01;;;;;;;6.55;3.47;;;;;;;21.48;49.35;99046.31;2622816;54;20022;-67
2022/06/16 06:50:35;;;;;;;5.22;3.67;;;;;;;21.54;49.37;99056.03;2623078;54;20030;-66
2022/06/16 06:53:05;;;;;;;4.65;3.13;;;;;;;21.66;49.13;99053.16;2621148;54;20029;-65
2022/06/16 06:55:45;;;;;;;4.38;3.45;;;;;;;21.70;49.19;99056.94;2620745;54;20177;-65
2022/06/16 06:58:20;;;;;;;5.55;3.88;;;;;;;21.72;49.13;99058.31;2622243;54;20041;-66
2022/06/16 07:00:53;;;;;;;4.30;3.17;;;;;;;21.78;48.84;99059.16;2621768;39;20445;-65
2022/06/16 07:03:23;;;;;;;6.65;4.00;;;;;;;21.94;48.56;99060.88;2621661;54;20018;-65
2022/06/16 07:05:53;;;;;;;7.47;4.40;;;;;;;22.10;48.52;99061.75;2622247;54;20027;-65
2022/06/16 07:08:24;;;;;;;6.03;3.55;;;;;;;22.16;48.12;99062.63;2620575;54;20569;-66
2022/06/16 07:10:53;;;;;;;5.43;3.80;;;;;;;22.21;48.15;99079.63;2621724;46;20056;-65
2022/06/16 07:13:24;;;;;;;8.60;3.38;;;;;;;22.23;48.14;99080.16;2622662;54;20042;-66
2022/06/16 07:15:56;;;;;;;4.68;3.67;;;;;;;22.25;47.68;99079.91;2623966;39;20453;-65
2022/06/16 07:18:26;;;;;;;;;;;;;;;22.29;47.45;99080.19;2623661;54;20045;-65
2022/06/16 07:20:56;;;;;;;4.18;3.58;;;;;;;22.37;47.17;99076.97;2624982;39;20349;-65
2022/06/16 07:23:26;;;;;;;8.45;3.28;;;;;;;22.48;46.96;99076.75;2623303;54;20026;-65
2022/06/16 07:25:56;;;;;;;6.05;3.50;;;;;;;22.53;46.78;99080.56;2623187;54;20053;-65
2022/06/16 07:28:26;;;;;;;4.97;3.20;;;;;;;22.57;46.09;99082.44;2622348;54;20030;-65
2022/06/16 07:30:58;;;;;;;7.25;3.58;;;;;;;22.67;46.08;99079.00;2622835;54;20034;-65
2022/06/16 07:33:48;;;;;;;4.97;3.50;;;;;;;22.77;46.07;99081.72;2623021;54;20625;-65
2022/06/16 07:36:17;;;;;;;4.55;3.17;;;;;;;22.85;46.10;99080.38;2622522;51;20034;-66
2022/06/16 07:38:49;;;;;;;5.15;3.03;;;;;;;22.97;45.45;99086.38;2622300;54;20026;-67
2022/06/16 07:41:34;;;;;;;5.32;3.00;;;;;;;23.02;45.02;99086.38;2621912;54;20076;-64
2022/06/16 07:44:06;;;;;;;8.63;3.03;;;;;;;23.02;45.06;99080.97;2621906;54;20022;-66
2022/06/16 07:46:40;;;;;;;6.65;3.92;;;;;;;23.13;44.92;99079.94;2621524;54;20033;-64
2022/06/16 07:49:12;;;;;;;4.70;3.00;;;;;;;23.26;44.39;99085.88;2621667;54;20038;-66
2022/06/16 07:51:42;;;;;;;4.35;2.90;;;;;;;23.31;44.09;99086.69;2621674;54;20134;-68
2022/06/16 07:54:14;;;;;;;3.15;2.75;;;;;;;23.37;44.09;99085.63;2619699;39;20456;-66
2022/06/16 07:57:04;;;;;;;6.70;3.10;;;;;;;23.49;43.92;99083.44;2618723;49;20568;-67
2022/06/16 07:59:34;;;;;;;4.65;3.03;;;;;;;23.54;43.84;99082.63;2620544;31;20539;-66
2022/06/16 08:02:06;;;;;;;3.53;2.70;;;;;;;23.62;43.36;99087.50;2622075;54;20074;-65
2022/06/16 08:04:36;;;;;;;4.90;2.85;;;;;;;23.70;43.37;99086.97;2624707;54;20090;-66
2022/06/16 08:07:06;;;;;;;3.40;2.72;;;;;;;23.80;42.74;99085.34;2630017;39;20477;-66
2022/06/16 08:19:07;;;;;;;4.00;2.72;;;;;;;24.11;41.63;99089.59;2617417;47;20514;-68
2022/06/16 08:21:37;;;;;;;;;;;;;;;24.34;41.20;99092.78;2618808;39;20452;-68
2022/06/16 08:24:08;;;;;;;8.65;3.03;;;;;;;24.41;40.82;99102.25;2617313;47;19950;-69
2022/06/16 08:26:39;;;;;;;4.10;3.08;;;;;;;24.59;40.22;99108.13;2617648;54;20023;-68
2022/06/16 08:29:10;;;;;;;6.18;3.50;;;;;;;24.58;39.59;99117.31;2617994;54;20038;-69
2022/06/16 08:31:40;;;;;;;4.57;3.08;;;;;;;24.63;40.02;99110.00;2618242;54;20632;-68
2022/06/16 08:34:12;;;;;;;8.43;3.55;;;;;;;24.82;39.28;99110.19;2617489;54;20553;-68
2022/06/16 08:36:42;;;;;;;6.70;3.13;;;;;;;24.96;39.25;99119.28;2617861;54;20026;-67
2022/06/16 08:39:12;;;;;;;3.42;3.13;;;;;;;25.13;38.07;99118.13;2618444;46;20061;-69
2022/06/16 08:41:49;;;;;;;4.38;2.90;;;;;;;25.13;38.07;99110.81;2621246;54;20023;-68
2022/06/16 08:44:25;;;;;;;3.97;2.50;;;;;;;25.02;38.20;99120.03;2619693;54;20038;-68
2022/06/16 08:47:05;;;;;;;5.03;3.22;;;;;;;24.97;38.68;99109.25;2620100;54;20041;-68
2022/06/16 08:49:44;;;;;;;4.03;2.90;;;;;;;24.98;38.45;99112.78;2619720;47;20070;-69
2022/06/16 08:52:28;;;;;;;5.85;3.03;;;;;;;25.00;38.40;99113.31;2619532;54;20042;-69
2022/06/16 08:55:09;;;;;;;4.45;3.00;;;;;;;25.14;38.25;99111.63;2618876;54;20040;-68
2022/06/16 08:57:54;;;;;;;7.43;3.40;;;;;;;25.26;37.64;99113.97;2618087;54;20030;-70
2022/06/16 09:00:31;;;;;;;6.43;3.28;;;;;;;25.29;38.31;99105.31;2618579;54;20046;-69
2022/06/16 09:03:09;;;;;;;5.13;3.13;;;;;;;25.47;37.82;99111.94;2618718;46;20061;-69
2022/06/16 09:05:53;;;;;;;4.35;3.03;;;;;;;25.55;37.95;99112.13;2619094;54;20561;-69
2022/06/16 09:08:38;;;;;;;4.25;3.65;;;;;;;25.56;37.26;99121.88;2623757;54;20026;-71
2022/06/16 09:11:16;;;;;;;4.68;2.67;;;;;;;25.46;37.34;99116.53;2627215;54;20045;-68
2022/06/16 09:14:13;;;;;;;6.50;3.22;;;;;;;25.47;36.99;99112.72;2625241;54;20053;-70
2022/06/16 09:16:56;;;;;;;7.13;3.25;;;;;;;25.42;37.17;99127.13;2624895;54;20074;-70
2022/06/16 09:19:40;;;;;;;4.97;3.45;;;;;;;25.41;36.90;99120.09;2621928;39;20467;-69
2022/06/16 09:22:26;;;;;;;4.35;3.33;;;;;;;25.51;36.53;99124.59;2619022;54;20045;-69
2022/06/16 09:25:09;;;;;;;5.45;3.00;;;;;;;25.53;36.55;99127.06;2619309;54;20030;-69
2022/06/16 09:27:42;;;;;;;;;;;;;;;25.54;36.84;99129.47;2619182;54;20042;-69
2022/06/16 09:30:14;;;;;;;3.83;3.03;;;;;;;25.67;36.54;99125.28;2619154;47;20424;-69
2022/06/16 09:32:49;;;;;;;5.30;2.92;;;;;;;25.76;36.62;99129.03;2619891;39;20425;-69
2022/06/16 09:35:26;;;;;;;5.88;3.20;;;;;;;25.90;35.73;99131.91;2621470;54;20037;-70
2022/06/16 09:38:04;;;;;;;6.25;2.85;;;;;;;25.88;35.70;99128.66;2622042;54;20022;-68
2022/06/16 09:40:40;;;;;;;6.95;2.80;;;;;;;25.82;35.05;99125.19;2622107;54;20030;-71
2022/06/16 09:43:14;;;;;;;6.35;3.10;;;;;;;25.90;35.21;99126.50;2620924;54;20551;-70
2022/06/16 09:45:48;;;;;;;5.22;3.58;;;;;;;26.04;34.92;99134.75;2622173;54;20023;-68
2022/06/16 09:48:22;;;;;;;8.68;3.40;;;;;;;26.06;34.39;99136.06;2620728;54;20027;-67
2022/06/16 09:50:58;;;;;;;8.18;3.20;;;;;;;26.14;33.99;99140.88;2619508;47;20027;-69
2022/06/16 09:53:38;;;;;;;7.38;3.17;;;;;;;26.16;34.10;99140.56;2620426;54;20027;-70
2022/06/16 09:56:13;;;;;;;5.07;2.70;;;;;;;26.19;34.02;99138.09;2620415;54;20030;-69
2022/06/16 09:58:49;;;;;;;6.07;3.15;;;;;;;26.28;33.89;99140.19;2619597;54;20027;-69
2022/06/16 10:01:23;;;;;;;4.63;2.95;;;;;;;26.47;33.20;99146.50;2620317;54;20034;-69
2022/06/16 10:04:00;;;;;;;5.55;2.92;;;;;;;26.51;32.73;99142.13;2620359;39;20684;-66
2022/06/16 10:06:39;;;;;;;4.85;3.00;;;;;;;26.35;32.44;99159.63;2619737;47;20019;-70
2022/06/16 10:09:19;;;;;;;4.43;2.85;;;;;;;26.39;32.02;99164.19;2619841;47;20026;-67
2022/06/16 10:12:04;;;;;;;4.68;2.40;;;;;;;26.39;31.98;99158.75;2619276;54;20051;-69
2022/06/16 10:14:44;;;;;;;5.50;2.95;;;;;;;26.44;32.31;99160.59;2619499;54;20078;-69
2022/06/16 10:17:17;;;;;;;2.72;2.25;;;;;;;26.55;31.30;99172.19;2618697;47;20030;-69
2022/06/16 10:19:48;;;;;;;4.47;2.40;;;;;;;26.53;31.05;99169.75;2619272;54;20018;-69
2022/06/16 10:22:20;;;;;;;5.28;2.72;;;;;;;26.56;30.92;99181.91;2619125;54;20085;-69
2022/06/16 10:25:00;;;;;;;4.87;2.70;;;;;;;26.60;30.37;99183.75;2618577;47;20027;-70
2022/06/16 10:27:37;;;;;;;6.00;2.58;;;;;;;26.59;29.71;99179.44;2618869;54;20303;-68
2022/06/16 10:30:11;;;;;;;3.35;2.30;;;;;;;26.67;30.06;99186.13;2618467;47;20061;-68
2022/06/16 10:32:44;;;;;;;5.40;2.53;;;;;;;26.78;29.65;99173.25;2619068;39;20607;-71
2022/06/16 10:35:19;;;;;;;6.65;2.42;;;;;;;26.85;28.96;99192.69;2618751;47;20569;-68
2022/06/16 10:37:53;;;;;;;5.78;2.72;;;;;;;26.83;29.26;99186.78;2618558;54;20026;-69
2022/06/16 10:40:32;;;;;;;4.70;2.15;;;;;;;26.88;28.41;99189.41;2618858;54;20038;-69
2022/06/16 10:43:22;;;;;;;4.18;2.58;;;;;;;26.96;27.77;99206.94;2618345;39;20408;-68
2022/06/16 10:46:05;;;;;;;4.22;1.95;;;;;;;26.98;27.91;99196.59;2618364;54;20041;-69
2022/06/16 10:48:38;;;;;;;5.03;2.15;;;;;;;26.99;26.82;99200.94;2618217;54;20074;-68
2022/06/16 10:51:14;;;;;;;3.30;2.33;;;;;;;27.00;26.65;99205.28;2619162;39;20421;-69
2022/06/16 10:53:46;;;;;;;7.30;2.25;;;;;;;26.99;27.32;99209.09;2618191;54;20041;-69
2022/06/16 10:56:21;;;;;;;7.13;2.63;;;;;;;27.10;26.43;99199.72;2618549;54;20026;-69
2022/06/16 10:59:00;;;;;;;5.25;2.35;;;;;;;27.20;27.00;99204.22;2618588;39;20494;-69
2022/06/16 11:01:53;;;;;;;6.38;2.92;;;;;;;27.27;26.82;99201.94;2618151;54;20038;-71
2022/06/16 11:04:26;;;;;;;6.95;2.45;;;;;;;27.27;26.81;99191.91;2618648;39;20468;-69
2022/06/16 11:06:59;;;;;;;5.10;2.22;;;;;;;27.37;26.73;99201.81;2618291;54;20034;-68
2022/06/16 11:09:30;;;;;;;;;;;;;;;27.28;26.32;99200.88;2618076;54;20034;-68
2022/06/16 11:12:05;;;;;;;4.82;2.92;;;;;;;27.24;26.81;99205.25;2617899;54;19946;-69
2022/06/16 11:14:37;;;;;;;3.22;1.88;;;;;;;27.31;26.38;99209.22;2617955;47;20110;-69
2022/06/16 11:17:11;;;;;;;10.10;2.30;;;;;;;27.32;25.73;99212.75;2618271;54;20130;-69
2022/06/16 11:19:46;;;;;;;6.35;2.08;;;;;;;27.21;25.31;99206.63;2618521;39;20434;-68
2022/06/16 11:22:18;;;;;;;7.90;2.28;;;;;;;27.29;26.01;99205.19;2617608;47;20039;-67
2022/06/16 11:24:56;;;;;;;5.13;2.00;;;;;;;27.36;26.69;99214.56;2617892;47;20038;-68
2022/06/16 11:27:29;;;;;;;3.67;2.75;;;;;;;27.34;26.57;99213.25;2618339;46;20140;-68
2022/06/16 11:29:59;;;;;;;4.55;3.30;;;;;;;27.34;27.39;99211.34;2618440;39;20514;-67
2022/06/16 11:32:31;;;;;;;6.78;2.55;;;;;;;27.37;26.57;99212.66;2617788;54;20030;-68
2022/06/16 11:35:01;;;;;;;5.53;2.15;;;;;;;27.33;26.85;99207.00;2617267;47;20053;-68
2022/06/16 11:37:47;;;;;;;3.75;1.92;;;;;;;27.24;26.16;99205.25;2617728;54;20030;-69
2022/06/16 11:40:40;;;;;;;3.25;1.95;;;;;;;27.34;25.81;99192.34;2617912;54;20037;-67
2022/06/16 11:43:37;;;;;;;4.00;2.17;;;;;;;27.31;26.86;99200.25;2617012;47;20038;-68
2022/06/16 11:46:13;;;;;;;4.60;2.08;;;;;;;27.35;26.98;99190.41;2617501;47;20022;-68
2022/06/16 11:49:02;;;;;;;4.60;2.28;;;;;;;27.31;26.92;99198.38;2617215;47;20043;-68
2022/06/16 11:51:40;;;;;;;3.63;2.28;;;;;;;27.40;27.06;99195.81;2619348;31;20482;-68
2022/06/16 11:54:22;;;;;;;5.78;2.03;;;;;;;27.57;26.90;99198.78;2619206;54;20133;-68
2022/06/16 11:56:56;;;;;;;3.80;2.20;;;;;;;27.65;26.24;99210.91;2620024;54;20033;-69
2022/06/16 12:00:06;;;;;;;6.30;2.20;;;;;;;27.54;26.73;99198.56;2619908;54;20053;-68
2022/06/16 12:03:15;;;;;;;7.32;2.70;;;;;;;27.61;26.35;99194.38;2618953;54;20029;-68
2022/06/16 12:05:52;;;;;;;3.40;2.00;;;;;;;27.54;25.72;99191.22;2620747;54;20038;-68
2022/06/16 12:08:44;;;;;;;4.32;1.80;;;;;;;27.57;26.25;99187.94;2620946;39;20425;-68
2022/06/16 12:11:23;;;;;;;5.93;1.70;;;;;;;27.64;24.45;99201.16;2619665;54;20026;-68
2022/06/16 12:14:23;;;;;;;3.38;1.63;;;;;;;27.73;25.02;99193.13;2619571;39;20445;-68
2022/06/16 12:17:03;;;;;;;4.70;1.88;;;;;;;27.90;25.45;99187.97;2619972;39;20477;-68
2022/06/16 12:19:42;;;;;;;5.30;3.00;;;;;;;28.00;25.39;99187.78;2619021;39;20411;-68
2022/06/16 12:22:17;;;;;;;4.03;1.88;;;;;;;28.17;24.59;99197.28;2619050;54;20030;-69
2022/06/16 12:24:55;;;;;;;4.43;1.70;;;;;;;28.08;24.77;99195.25;2619099;54;20043;-68
2022/06/16 12:27:29;;;;;;;5.47;2.38;;;;;;;28.10;25.30;99181.41;2619963;54;20038;-68
2022/06/16 12:30:07;;;;;;;2.63;1.88;;;;;;;28.16;24.70;99191.06;2620103;54;20027;-68
2022/06/16 12:32:48;;;;;;;5.45;1.90;;;;;;;28.35;24.79;99193.72;2620688;54;20027;-67
2022/06/16 12:35:28;;;;;;;5.28;2.05;;;;;;;28.45;24.27;99192.72;2620616;47;20043;-71
2022/06/16 12:38:04;;;;;;;2.13;1.80;;;;;;;28.33;23.43;99187.75;2621168;39;20454;-68
2022/06/16 12:40:38;;;;;;;2.63;1.60;;;;;;;28.46;22.92;99184.28;2621613;54;20039;-69